createdAt,value
2023-05-03T00:00:23.788Z,5.97
2023-05-03T00:02:54.023Z,6.15
2023-05-03T00:05:21.543Z,5.90
2023-05-03T00:07:49.551Z,6.20
2023-05-03T00:10:17.255Z,5.95
2023-05-03T00:12:44.730Z,6.40
2023-05-03T00:15:12.143Z,6.10
2023-05-03T00:17:39.931Z,6.12
2023-05-03T00:20:08.143Z,6.82
2023-05-03T00:22:36.550Z,6.60
2023-05-03T00:25:04.843Z,6.30
2023-05-03T00:27:32.406Z,6.25
2023-05-03T00:30:00.023Z,6.82
2023-05-03T00:32:28.441Z,6.32
2023-05-03T00:34:57.169Z,6.55
2023-05-03T00:37:25.458Z,6.30
2023-05-03T00:39:53.675Z,5.87
2023-05-03T00:42:21.086Z,6.12
2023-05-03T00:44:48.439Z,6.07
2023-05-03T00:47:16.847Z,6.65
2023-05-03T00:49:44.923Z,5.72
2023-05-03T00:52:12.413Z,6.65
2023-05-03T00:54:40.408Z,6.20
2023-05-03T00:57:07.912Z,6.87
2023-05-03T00:59:35.389Z,6.50
2023-05-03T01:02:03.241Z,6.47
2023-05-03T01:04:30.845Z,6.22
2023-05-03T01:07:20.017Z,6.05
2023-05-03T01:10:00.945Z,7.05
2023-05-03T01:12:34.318Z,7.18
2023-05-03T01:15:20.749Z,6.87
2023-05-03T01:17:51.762Z,6.65
2023-05-03T01:20:24.837Z,7.05
2023-05-03T01:22:57.956Z,6.07
2023-05-03T01:25:29.156Z,7.20
2023-05-03T01:27:56.580Z,6.35
2023-05-03T01:30:27.065Z,6.60
2023-05-03T01:33:16.176Z,6.05
2023-05-03T01:35:56.156Z,6.90
2023-05-03T01:38:23.953Z,6.70
2023-05-03T01:40:53.639Z,6.85
2023-05-03T01:43:21.501Z,6.20
2023-05-03T01:45:49.869Z,6.68
2023-05-03T01:48:18.840Z,6.60
2023-05-03T01:50:46.913Z,7.32
2023-05-03T01:53:14.797Z,6.75
2023-05-03T01:55:43.318Z,7.22
2023-05-03T01:58:12.634Z,7.07
2023-05-03T02:00:40.458Z,7.15
2023-05-03T02:03:08.367Z,8.13
2023-05-03T02:05:36.124Z,6.75
2023-05-03T02:08:03.576Z,7.15
2023-05-03T02:10:31.281Z,7.35
2023-05-03T02:12:58.863Z,7.40
2023-05-03T02:15:26.421Z,7.47
2023-05-03T02:17:54.361Z,7.32
2023-05-03T02:20:22.091Z,7.18
2023-05-03T02:22:49.502Z,7.80
2023-05-03T02:25:17.317Z,7.90
2023-05-03T02:27:45.514Z,7.95
2023-05-03T02:30:13.517Z,7.22
2023-05-03T02:32:42.348Z,7.15
2023-05-03T02:35:10.615Z,7.95
2023-05-03T02:37:38.089Z,7.30
2023-05-03T02:40:09.568Z,7.30
2023-05-03T02:42:37.204Z,7.62
2023-05-03T02:45:05.707Z,7.37
2023-05-03T02:47:33.552Z,7.53
2023-05-03T02:50:01.338Z,8.13
2023-05-03T02:52:31.067Z,7.10
2023-05-03T02:54:58.901Z,7.62
2023-05-03T02:57:26.839Z,7.15
2023-05-03T02:59:54.674Z,7.00
2023-05-03T03:02:22.734Z,7.78
2023-05-03T03:04:50.291Z,7.78
2023-05-03T03:07:17.899Z,7.53
2023-05-03T03:09:45.755Z,7.03
2023-05-03T03:12:13.277Z,7.47
2023-05-03T03:14:41.641Z,7.47
2023-05-03T03:17:10.667Z,7.25
2023-05-03T03:19:38.118Z,7.37
2023-05-03T03:22:05.740Z,7.20
2023-05-03T03:24:34.156Z,7.30
2023-05-03T03:27:01.730Z,7.03
2023-05-03T03:29:31.511Z,7.50
2023-05-03T03:32:01.083Z,7.40
2023-05-03T03:34:28.797Z,8.27
2023-05-03T03:36:56.430Z,8.13
2023-05-03T03:39:24.866Z,7.47
2023-05-03T03:41:52.558Z,7.62
2023-05-03T03:44:20.196Z,8.10
2023-05-03T03:46:48.059Z,7.82
2023-05-03T03:49:16.906Z,8.07
2023-05-03T03:51:44.422Z,7.03
2023-05-03T03:54:12.597Z,7.30
2023-05-03T03:56:40.461Z,8.02
2023-05-03T03:59:08.199Z,7.00
2023-05-03T04:01:36.090Z,7.95
2023-05-03T04:04:04.725Z,7.20
2023-05-03T04:06:33.458Z,7.15
2023-05-03T04:09:02.010Z,8.15
2023-05-03T04:11:31.722Z,7.53
2023-05-03T04:13:59.698Z,7.10
2023-05-03T04:16:27.359Z,6.93
2023-05-03T04:18:55.257Z,7.37
2023-05-03T04:21:22.916Z,7.10
2023-05-03T04:23:50.872Z,7.45
2023-05-03T04:26:30.769Z,7.85
2023-05-03T04:29:01.075Z,6.65
2023-05-03T04:31:29.978Z,6.68
2023-05-03T04:33:58.041Z,6.90
2023-05-03T04:36:26.596Z,7.43
2023-05-03T04:38:54.808Z,7.45
2023-05-03T04:41:24.368Z,7.07
2023-05-03T04:43:52.231Z,7.03
2023-05-03T04:46:20.419Z,8.27
2023-05-03T04:48:48.502Z,6.90
2023-05-03T04:51:15.923Z,7.85
2023-05-03T04:53:43.738Z,7.72
2023-05-03T04:56:11.793Z,7.85
2023-05-03T04:58:39.799Z,8.18
2023-05-03T05:01:08.207Z,7.82
2023-05-03T05:03:35.895Z,7.95
2023-05-03T05:06:03.658Z,8.70
2023-05-03T05:08:31.913Z,8.68
2023-05-03T05:11:01.997Z,8.18
2023-05-03T05:13:29.999Z,8.23
2023-05-03T05:15:57.803Z,8.50
2023-05-03T05:18:25.255Z,8.35
2023-05-03T05:20:53.146Z,8.25
2023-05-03T05:23:20.992Z,7.90
2023-05-03T05:25:48.727Z,8.23
2023-05-03T05:28:16.235Z,8.00
2023-05-03T05:30:44.569Z,7.70
2023-05-03T05:33:12.587Z,8.02
2023-05-03T05:35:40.344Z,7.87
2023-05-03T05:38:08.549Z,7.57
2023-05-03T05:40:36.486Z,7.47
2023-05-03T05:43:04.336Z,7.75
2023-05-03T05:45:34.479Z,7.93
2023-05-03T05:48:02.747Z,6.97
2023-05-03T05:50:31.600Z,7.50
2023-05-03T05:53:00.290Z,6.72
2023-05-03T05:55:28.260Z,7.20
2023-05-03T05:57:56.219Z,6.80
2023-05-03T06:00:25.169Z,6.82
2023-05-03T06:02:53.110Z,6.68
2023-05-03T06:05:20.975Z,6.70
2023-05-03T06:07:49.474Z,6.50
2023-05-03T06:10:17.758Z,6.18
2023-05-03T06:12:45.577Z,6.25
2023-05-03T06:15:13.457Z,5.90
2023-05-03T06:17:41.496Z,6.53
2023-05-03T06:20:12.408Z,6.15
2023-05-03T06:22:40.499Z,6.60
2023-05-03T06:25:09.694Z,6.00
2023-05-03T06:27:38.429Z,5.85
2023-05-03T06:30:06.828Z,5.72
2023-05-03T06:32:34.710Z,5.78
2023-05-03T06:35:03.574Z,6.85
2023-05-03T06:37:31.196Z,5.93
2023-05-03T06:39:58.895Z,5.97
2023-05-03T06:42:26.324Z,6.20
2023-05-03T06:45:02.658Z,6.12
2023-05-03T06:47:30.503Z,7.00
2023-05-03T06:49:57.930Z,6.28
2023-05-03T06:52:26.811Z,6.87
2023-05-03T06:54:54.858Z,7.07
2023-05-03T06:57:22.863Z,6.40
2023-05-03T06:59:50.698Z,6.78
2023-05-03T07:02:18.996Z,5.95
2023-05-03T07:04:46.565Z,5.72
2023-05-03T07:07:15.845Z,5.95
2023-05-03T07:09:44.163Z,6.15
2023-05-03T07:12:12.044Z,6.87
2023-05-03T07:14:40.595Z,6.37
2023-05-03T07:17:08.992Z,6.50
2023-05-03T07:19:37.421Z,6.70
2023-05-03T07:22:04.820Z,7.32
2023-05-03T07:24:32.472Z,7.05
2023-05-03T07:26:59.860Z,6.78
2023-05-03T07:29:27.578Z,6.57
2023-05-03T07:31:55.458Z,5.55
2023-05-03T07:34:22.910Z,6.37
2023-05-03T07:36:50.414Z,5.78
2023-05-03T07:39:18.824Z,6.10
2023-05-03T07:41:46.924Z,6.10
2023-05-03T07:44:14.293Z,5.28
2023-05-03T07:46:41.966Z,6.50
2023-05-03T07:49:09.334Z,5.93
2023-05-03T07:51:37.191Z,5.50
2023-05-03T07:54:05.356Z,4.75
2023-05-03T07:56:32.750Z,5.00
2023-05-03T07:59:09.275Z,5.43
2023-05-03T08:01:38.386Z,5.37
2023-05-03T08:04:06.591Z,5.53
2023-05-03T08:06:35.725Z,5.55
2023-05-03T08:09:04.673Z,5.37
2023-05-03T08:11:32.641Z,6.85
2023-05-03T08:14:00.155Z,6.32
2023-05-03T08:16:27.749Z,5.35
2023-05-03T08:18:55.471Z,5.72
2023-05-03T08:21:24.785Z,5.53
2023-05-03T08:23:53.308Z,5.07
2023-05-03T08:26:22.183Z,5.28
2023-05-03T08:28:50.346Z,5.10
2023-05-03T08:31:18.073Z,5.10
2023-05-03T08:33:45.855Z,5.90
2023-05-03T08:36:13.281Z,5.05
2023-05-03T08:38:41.243Z,4.72
2023-05-03T08:41:30.877Z,5.30
2023-05-03T08:43:59.762Z,5.05
2023-05-03T08:46:28.398Z,4.78
2023-05-03T08:48:56.112Z,4.28
2023-05-03T08:51:24.644Z,4.25
2023-05-03T08:53:52.451Z,4.30
2023-05-03T08:56:41.143Z,4.40
2023-05-03T08:59:10.638Z,4.65
2023-05-03T09:01:40.008Z,4.32
2023-05-03T09:04:08.671Z,4.53
2023-05-03T09:06:36.991Z,4.47
2023-05-03T09:09:07.552Z,4.57
2023-05-03T09:11:36.884Z,4.12
2023-05-03T09:14:11.926Z,4.80
2023-05-03T09:16:40.992Z,4.43
2023-05-03T09:19:11.610Z,4.47
2023-05-03T09:21:40.710Z,4.30
2023-05-03T09:24:18.007Z,4.40
2023-05-03T09:26:47.116Z,4.35
2023-05-03T09:29:31.790Z,4.22
2023-05-03T09:32:08.512Z,3.67
2023-05-03T09:34:37.084Z,3.75
2023-05-03T09:37:04.899Z,4.00
2023-05-03T09:39:32.741Z,3.72
2023-05-03T09:42:10.594Z,3.80
2023-05-03T09:44:44.634Z,4.07
2023-05-03T09:47:12.311Z,3.70
2023-05-03T09:49:40.013Z,3.70
2023-05-03T09:52:08.515Z,3.80
2023-05-03T09:54:36.014Z,3.70
2023-05-03T09:57:05.769Z,4.12
2023-05-03T09:59:34.370Z,4.10
2023-05-03T10:02:04.002Z,3.90
2023-05-03T10:04:43.837Z,3.60
2023-05-03T10:07:17.656Z,3.95
2023-05-03T10:09:48.680Z,4.10
2023-05-03T10:12:18.902Z,3.80
2023-05-03T10:14:47.965Z,3.97
2023-05-03T10:17:46.577Z,4.18
2023-05-03T10:20:38.931Z,4.32
2023-05-03T10:23:06.994Z,4.12
2023-05-03T10:25:36.188Z,3.90
2023-05-03T10:28:08.650Z,4.43
2023-05-03T10:30:38.294Z,4.10
2023-05-03T10:33:29.739Z,3.83
2023-05-03T10:35:59.028Z,3.83
2023-05-03T10:38:28.534Z,3.55
2023-05-03T10:40:56.734Z,4.12
2023-05-03T10:43:30.648Z,4.43
2023-05-03T10:46:02.673Z,4.50
2023-05-03T10:48:34.043Z,4.05
2023-05-03T10:51:30.783Z,4.35
2023-05-03T10:53:58.733Z,4.00
2023-05-03T10:56:26.459Z,4.20
2023-05-03T10:58:56.976Z,3.83
2023-05-03T11:01:27.030Z,4.10
2023-05-03T11:04:10.098Z,4.15
2023-05-03T11:06:41.198Z,3.80
2023-05-03T11:09:10.104Z,4.15
2023-05-03T11:11:39.957Z,3.85
2023-05-03T11:14:08.764Z,3.42
2023-05-03T11:16:37.148Z,3.33
2023-05-03T11:19:05.978Z,3.33
2023-05-03T11:21:33.402Z,3.72
2023-05-03T11:24:01.748Z,4.15
2023-05-03T11:26:35.775Z,3.67
2023-05-03T11:29:03.451Z,3.95
2023-05-03T11:31:31.874Z,4.53
2023-05-03T11:33:59.706Z,4.25
2023-05-03T11:36:27.999Z,4.78
2023-05-03T11:38:55.882Z,4.80
2023-05-03T11:41:23.349Z,4.43
2023-05-03T11:44:00.677Z,4.93
2023-05-03T11:46:37.605Z,3.97
2023-05-03T11:49:05.433Z,4.78
2023-05-03T11:51:32.912Z,4.57
2023-05-03T11:54:10.130Z,4.28
2023-05-03T11:56:52.851Z,3.92
2023-05-03T11:59:20.801Z,4.50
2023-05-03T12:01:49.538Z,3.90
2023-05-03T12:04:18.044Z,4.93
2023-05-03T12:06:52.778Z,4.30
2023-05-03T12:09:25.996Z,3.95
2023-05-03T12:11:55.306Z,4.72
2023-05-03T12:14:24.405Z,4.00
2023-05-03T12:16:53.846Z,4.18
2023-05-03T12:19:30.903Z,4.80
2023-05-03T12:24:33.406Z,4.07
2023-05-03T12:27:02.832Z,4.30
2023-05-03T12:29:35.396Z,3.80
2023-05-03T12:32:04.636Z,3.60
2023-05-03T12:34:35.440Z,3.37
2023-05-03T12:37:05.779Z,3.70
2023-05-03T12:39:34.161Z,3.60
2023-05-03T12:47:04.144Z,3.40
2023-05-03T12:49:32.455Z,2.95
2023-05-03T12:52:34.750Z,3.62
2023-05-03T12:54:49.531Z,3.25
2023-05-03T12:57:22.952Z,2.62
2023-05-03T12:59:54.146Z,2.62
2023-05-03T13:05:00.491Z,2.90
2023-05-03T13:07:31.745Z,2.72
2023-05-03T13:12:33.159Z,3.22
2023-05-03T13:15:02.447Z,3.10
2023-05-03T13:17:31.595Z,2.78
2023-05-03T13:19:59.427Z,2.58
2023-05-03T13:22:27.198Z,2.75
2023-05-03T13:24:54.710Z,2.67
2023-05-03T13:27:22.367Z,2.72
2023-05-03T13:29:49.901Z,3.28
2023-05-03T13:32:17.579Z,2.70
2023-05-03T13:34:45.683Z,3.10
2023-05-03T13:37:18.235Z,2.78
2023-05-03T13:39:46.661Z,2.90
2023-05-03T13:42:14.387Z,3.00
2023-05-03T13:44:42.565Z,3.12
2023-05-03T13:47:10.213Z,2.95
2023-05-03T13:49:37.632Z,2.78
2023-05-03T13:52:05.048Z,3.10
2023-05-03T13:54:32.722Z,3.10
2023-05-03T13:57:00.211Z,3.33
2023-05-03T13:59:27.645Z,5.43
2023-05-03T14:01:55.576Z,6.07
2023-05-03T14:04:25.449Z,3.25
2023-05-03T14:06:52.923Z,2.72
2023-05-03T14:09:20.353Z,3.00
2023-05-03T14:11:48.196Z,3.00
2023-05-03T14:14:15.587Z,2.70
2023-05-03T14:16:43.782Z,2.87
2023-05-03T14:19:11.999Z,2.72
2023-05-03T14:21:42.022Z,3.12
2023-05-03T14:24:09.468Z,2.92
2023-05-03T14:26:37.548Z,2.90
2023-05-03T14:29:05.896Z,2.90
2023-05-03T14:31:34.357Z,3.25
2023-05-03T14:34:02.278Z,3.42
2023-05-03T14:36:34.863Z,3.15
2023-05-03T14:39:04.168Z,3.10
2023-05-03T14:41:33.208Z,3.42
2023-05-03T14:44:01.332Z,3.20
2023-05-03T14:46:29.072Z,2.62
2023-05-03T14:48:56.502Z,3.67
2023-05-03T14:51:24.068Z,2.70
2023-05-03T14:53:52.269Z,2.60
2023-05-03T14:56:19.661Z,3.12
2023-05-03T14:58:47.063Z,3.17
2023-05-03T15:01:19.634Z,2.70
2023-05-03T15:03:47.440Z,2.85
2023-05-03T15:06:16.633Z,2.70
2023-05-03T15:08:44.042Z,2.72
2023-05-03T15:11:11.584Z,3.10
2023-05-03T15:13:39.595Z,3.17
2023-05-03T15:16:07.231Z,3.10
2023-05-03T15:18:34.622Z,3.53
2023-05-03T15:21:03.312Z,3.20
2023-05-03T15:23:31.119Z,3.10
2023-05-03T15:25:59.047Z,3.05
2023-05-03T15:28:26.741Z,3.35
2023-05-03T15:30:54.194Z,3.58
2023-05-03T15:33:21.639Z,3.72
2023-05-03T15:35:49.363Z,3.45
2023-05-03T15:38:17.905Z,4.20
2023-05-03T15:40:45.521Z,3.45
2023-05-03T15:43:13.245Z,3.35
2023-05-03T15:45:40.624Z,3.15
2023-05-03T15:48:08.124Z,3.35
2023-05-03T15:50:35.807Z,3.22
2023-05-03T15:53:03.774Z,3.55
2023-05-03T15:55:31.494Z,3.15
2023-05-03T15:57:59.201Z,3.62
2023-05-03T16:00:27.115Z,3.62
2023-05-03T16:02:55.125Z,3.53
2023-05-03T16:05:22.984Z,3.50
2023-05-03T16:07:50.979Z,4.22
2023-05-03T16:10:18.808Z,3.85
2023-05-03T16:12:46.319Z,3.70
2023-05-03T16:15:13.751Z,4.32
2023-05-03T16:17:41.529Z,3.83
2023-05-03T16:20:10.656Z,4.35
2023-05-03T16:22:38.469Z,4.78
2023-05-03T16:25:12.740Z,4.22
2023-05-03T16:27:40.346Z,4.43
2023-05-03T16:30:09.227Z,4.87
2023-05-03T16:32:37.068Z,4.60
2023-05-03T16:35:04.792Z,4.37
2023-05-03T16:37:33.977Z,5.22
2023-05-03T16:40:01.522Z,5.03
2023-05-03T16:42:29.002Z,5.40
2023-05-03T16:44:56.747Z,4.90
2023-05-03T16:47:24.410Z,4.85
2023-05-03T16:49:52.137Z,4.85
2023-05-03T16:52:19.869Z,5.25
2023-05-03T16:54:47.316Z,5.10
2023-05-03T16:57:15.251Z,4.85
2023-05-03T16:59:42.946Z,5.32
2023-05-03T17:02:11.055Z,4.85
2023-05-03T17:04:38.494Z,5.40
2023-05-03T17:07:06.204Z,5.35
2023-05-03T17:09:33.557Z,5.55
2023-05-03T17:12:03.480Z,5.15
2023-05-03T17:14:31.328Z,4.93
2023-05-03T17:16:58.740Z,5.20
2023-05-03T17:19:26.658Z,5.07
2023-05-03T17:21:54.957Z,5.45
2023-05-03T17:24:22.342Z,6.03
2023-05-03T17:26:49.769Z,5.53
2023-05-03T17:29:17.471Z,5.43
2023-05-03T17:31:44.980Z,5.37
2023-05-03T17:34:12.418Z,5.28
2023-05-03T17:36:40.116Z,5.03
2023-05-03T17:39:07.724Z,5.22
2023-05-03T17:41:36.970Z,5.80
2023-05-03T17:44:04.950Z,4.60
2023-05-03T17:46:34.465Z,4.40
2023-05-03T17:49:02.581Z,4.65
2023-05-03T17:51:32.023Z,4.90
2023-05-03T17:53:59.462Z,4.30
2023-05-03T17:56:26.930Z,4.57
2023-05-03T17:58:54.691Z,5.80
2023-05-03T18:01:22.191Z,5.22
2023-05-03T18:03:50.018Z,4.78
2023-05-03T18:06:17.529Z,4.22
2023-05-03T18:08:44.943Z,4.95
2023-05-03T18:11:12.761Z,5.35
2023-05-03T18:13:41.334Z,4.93
2023-05-03T18:16:09.435Z,5.20
2023-05-03T18:18:37.509Z,4.90
2023-05-03T18:21:05.124Z,4.95
2023-05-03T18:23:33.340Z,4.55
2023-05-03T18:26:01.058Z,5.12
2023-05-03T18:28:28.529Z,4.87
2023-05-03T18:30:56.048Z,5.35
2023-05-03T18:33:24.001Z,4.90
2023-05-03T18:35:52.031Z,4.95
2023-05-03T18:38:21.350Z,4.80
2023-05-03T18:40:49.551Z,5.25
2023-05-03T18:43:17.463Z,4.87
2023-05-03T18:45:44.873Z,4.75
2023-05-03T18:48:12.635Z,4.82
2023-05-03T18:50:42.862Z,4.70
2023-05-03T18:53:10.924Z,4.40
2023-05-03T18:55:38.580Z,5.05
2023-05-03T18:58:06.096Z,5.15
2023-05-03T19:00:33.576Z,4.80
2023-05-03T19:03:01.530Z,5.75
2023-05-03T19:05:29.719Z,5.00
2023-05-03T19:07:57.170Z,4.50
2023-05-03T19:10:24.857Z,5.37
2023-05-03T19:12:53.428Z,5.28
2023-05-03T19:15:21.250Z,5.03
2023-05-03T19:17:48.927Z,4.90
2023-05-03T19:20:17.380Z,4.72
2023-05-03T19:22:44.885Z,4.40
2023-05-03T19:25:12.601Z,4.32
2023-05-03T19:27:39.980Z,4.68
2023-05-03T19:30:07.935Z,4.62
2023-05-03T19:32:38.859Z,4.18
2023-05-03T19:35:08.761Z,4.85
2023-05-03T19:37:36.778Z,4.03
2023-05-03T19:40:05.526Z,4.40
2023-05-03T19:42:33.318Z,4.10
2023-05-03T19:45:03.566Z,4.35
2023-05-03T19:47:31.769Z,5.28
2023-05-03T19:49:59.597Z,4.45
2023-05-03T19:52:27.310Z,4.40
2023-05-03T19:54:56.321Z,5.00
2023-05-03T19:57:24.008Z,4.32
2023-05-03T19:59:51.706Z,5.07
2023-05-03T20:02:20.300Z,4.40
2023-05-03T20:04:49.461Z,4.60
2023-05-03T20:07:17.053Z,4.03
2023-05-03T20:09:44.478Z,4.22
2023-05-03T20:12:13.624Z,4.65
2023-05-03T20:14:41.277Z,4.30
2023-05-03T20:17:08.680Z,3.92
2023-05-03T20:19:36.940Z,4.22
2023-05-03T20:22:04.456Z,4.20
2023-05-03T20:24:31.940Z,3.80
2023-05-03T20:26:59.651Z,4.28
2023-05-03T20:29:27.356Z,4.05
2023-05-03T20:31:54.866Z,4.15
2023-05-03T20:34:22.595Z,3.90
2023-05-03T20:36:51.570Z,5.03
2023-05-03T20:39:19.178Z,4.60
2023-05-03T20:41:46.885Z,4.12
2023-05-03T20:44:14.591Z,4.62
2023-05-03T20:46:42.289Z,4.05
2023-05-03T20:49:10.692Z,3.95
2023-05-03T20:51:38.055Z,4.15
2023-05-03T20:54:05.516Z,4.15
2023-05-03T20:56:33.564Z,4.22
2023-05-03T20:59:01.048Z,3.90
2023-05-03T21:01:28.566Z,3.78
2023-05-03T21:03:56.790Z,4.10
2023-05-03T21:06:24.299Z,4.10
2023-05-03T21:08:52.809Z,4.30
2023-05-03T21:11:20.598Z,4.22
2023-05-03T21:13:48.127Z,4.40
2023-05-03T21:16:15.580Z,5.00
2023-05-03T21:18:43.343Z,5.55
2023-05-03T21:21:10.707Z,5.70
2023-05-03T21:23:38.337Z,6.05
2023-05-03T21:26:06.355Z,5.93
2023-05-03T21:28:33.726Z,4.90
2023-05-03T21:31:01.385Z,4.03
2023-05-03T21:33:29.079Z,4.25
2023-05-03T21:35:56.581Z,4.32
2023-05-03T21:38:24.135Z,4.10
2023-05-03T21:40:51.784Z,3.67
2023-05-03T21:43:19.848Z,3.72
2023-05-03T21:45:48.261Z,4.28
2023-05-03T21:48:15.986Z,4.05
2023-05-03T21:50:43.559Z,3.92
2023-05-03T21:53:10.898Z,3.92
2023-05-03T21:55:38.602Z,4.10
2023-05-03T21:58:05.954Z,4.07
2023-05-03T22:00:36.033Z,4.53
2023-05-03T22:03:03.940Z,3.87
2023-05-03T22:05:31.817Z,4.68
2023-05-03T22:07:59.898Z,3.95
2023-05-03T22:10:27.883Z,4.25
2023-05-03T22:12:55.391Z,4.75
2023-05-03T22:15:22.900Z,3.85
2023-05-03T22:17:50.683Z,4.12
2023-05-03T22:20:18.059Z,4.60
2023-05-03T22:22:45.420Z,4.40
2023-05-03T22:25:22.905Z,4.25
2023-05-03T22:27:51.142Z,4.10
2023-05-03T22:30:19.462Z,4.00
2023-05-03T22:32:47.584Z,4.28
2023-05-03T22:35:15.439Z,3.83
2023-05-03T22:37:43.102Z,4.50
2023-05-03T22:40:10.781Z,4.55
2023-05-03T22:42:38.204Z,4.00
2023-05-03T22:45:06.358Z,3.78
2023-05-03T22:47:34.009Z,4.47
2023-05-03T22:50:01.905Z,4.45
2023-05-03T22:52:31.250Z,4.72
2023-05-03T22:54:58.791Z,4.12
2023-05-03T22:57:26.216Z,5.15
2023-05-03T22:59:53.930Z,5.03
2023-05-03T23:02:21.568Z,5.00
2023-05-03T23:04:49.095Z,4.97
2023-05-03T23:07:16.973Z,5.00
2023-05-03T23:09:47.778Z,5.10
2023-05-03T23:12:15.326Z,6.03
2023-05-03T23:14:45.750Z,6.00
2023-05-03T23:17:13.721Z,7.37
2023-05-03T23:19:41.650Z,6.68
2023-05-03T23:22:09.545Z,6.85
2023-05-03T23:24:37.112Z,7.25
2023-05-03T23:27:04.492Z,8.00
2023-05-03T23:29:32.616Z,8.10
2023-05-03T23:32:00.756Z,8.68
2023-05-03T23:34:28.515Z,8.20
2023-05-03T23:36:56.315Z,8.20
2023-05-03T23:39:23.990Z,7.45
2023-05-03T23:41:51.573Z,7.40
2023-05-03T23:44:19.299Z,7.47
2023-05-03T23:46:46.725Z,7.35
2023-05-03T23:49:14.116Z,7.07
2023-05-03T23:51:41.799Z,7.60
2023-05-03T23:54:09.410Z,7.55
2023-05-03T23:56:36.823Z,7.07
2023-05-03T23:59:05.775Z,7.55
